メインページ
METAR-TAF:

METAR-TAF

空港 :

Medicine Hat, アルバータ州, カナダ

緯度: 50-01N, 経度: 110-43W, 海抜: 717m

現時点の気象観測

当レポートは9分前の04:38(UTC)に作成
の風 3kt
気温 -1°C
湿度 100%
気圧 1011 hPa
視程: 4.8km
高度200ftの千切れ雲あり
高度13000ftの曇り

METAR: CYXH 270438Z AUTO 09003KT 3SM BR BKN002 OVC130 M01/M01 A2986 RMK SLP143

時間: 21:47 (04:47 UTC)

予報

当レポートは30分前の04:17(UTC)に作成
予報は27日の 04時(UTC)から 27日の 12時(UTC)まで有効
変向風 3kt
視程: 3.2km
高度200ftの千切れ雲あり
高度12000ftの千切れ雲あり
27日の 04時(UTC)から 27日の 06時(UTC)まで一時的に
視程: 10km
高度300ftの雲は散在している
高度12000ftの千切れ雲あり
27日の 0600時(UTC)から
の風 5kt
視程: 10km
高度400ftの雲は散在している
高度12000ftの千切れ雲あり
27日の 06時(UTC)から 27日の 08時(UTC)まで一時的に
視程: 6.4km
高度400ftの千切れ雲あり
27日の 0800時(UTC)から
南/南西の風 8kt
視程: 10km
高度10000ftの千切れ雲あり

TAF: CYXH 270417Z 2704/2712 VRB03KT 2SM BR BKN002 BKN120 TEMPO 2704/2706 P6SM NSW SCT003 BKN120 FM270600 19005KT P6SM SCT004 BKN120 TEMPO 2706/2708 4SM BR BKN004 FM270800 21008KT P6SM BKN100 RMK NXT FCST BY 270600Z

4,000以上の空港の気象観測と天気予報(METAR報とTAF報)

利用可能な観測所は地図上に黄色い丸と赤い丸で示す。

丸の上にカーソルを重ねると観測所名を参照できる。

次にクリックすると気象観測と天気予報を参照できる。

マップの切り替え:黒色「×」印の緑ボタンをクリックして拡大、「-」印の緑ボタンをクリックして縮小、緑色の三角印をクリックして隣りの地図に切り替え


METAR-TAF: